createdAt,value
2018-10-07T00:01:27.258Z,99066.80
2018-10-07T00:03:55.925Z,99064.11
2018-10-07T00:06:24.690Z,99063.28
2018-10-07T00:08:53.338Z,99059.84
2018-10-07T00:11:22.005Z,99057.57
2018-10-07T00:13:50.674Z,99053.50
2018-10-07T00:16:19.369Z,99041.20
2018-10-07T00:18:47.997Z,99039.61
2018-10-07T00:21:16.758Z,99040.06
2018-10-07T00:23:46.197Z,99042.66
2018-10-07T00:26:14.874Z,99039.52
2018-10-07T00:28:43.529Z,99037.45
2018-10-07T00:33:46.081Z,99027.95
2018-10-07T00:36:14.740Z,99032.81
2018-10-07T00:38:43.421Z,99040.80
2018-10-07T00:41:12.103Z,99041.00
2018-10-07T00:43:40.783Z,99038.20
2018-10-07T00:46:10.001Z,99038.70
2018-10-07T00:48:38.815Z,99037.80
2018-10-07T00:51:08.291Z,99036.67
2018-10-07T00:53:37.001Z,99038.66
2018-10-07T00:56:05.686Z,99043.89
2018-10-07T00:58:34.353Z,99045.27
2018-10-07T01:01:03.022Z,99045.18
2018-10-07T01:03:31.650Z,99043.67
2018-10-07T01:06:00.341Z,99044.27
2018-10-07T01:08:28.977Z,99040.92
2018-10-07T01:10:57.609Z,99040.09
2018-10-07T01:13:26.283Z,99042.72
2018-10-07T01:15:54.901Z,99040.53
2018-10-07T01:18:23.577Z,99037.80
2018-10-07T01:20:52.277Z,99037.41
2018-10-07T01:23:20.952Z,99032.50
2018-10-07T01:25:49.604Z,99031.51
2018-10-07T01:28:18.378Z,99036.28
2018-10-07T01:30:47.007Z,99034.64
2018-10-07T01:33:15.648Z,99033.81
2018-10-07T01:35:44.448Z,99031.96
2018-10-07T01:38:13.162Z,99033.06
2018-10-07T01:40:41.921Z,99028.19
2018-10-07T01:43:10.572Z,99023.17
2018-10-07T01:45:39.244Z,99023.01
2018-10-07T01:48:07.969Z,99019.94
2018-10-07T01:50:36.601Z,99025.43
2018-10-07T01:53:05.241Z,99019.70
2018-10-07T01:55:33.894Z,99021.84
2018-10-07T01:58:02.544Z,99021.05
2018-10-07T02:00:31.213Z,99022.34
2018-10-07T02:02:59.867Z,99020.55
2018-10-07T02:05:28.547Z,99019.02
2018-10-07T02:07:57.197Z,99024.13
2018-10-07T02:10:25.864Z,99024.28
2018-10-07T02:12:54.531Z,99027.08
2018-10-07T02:15:23.237Z,99025.34
2018-10-07T02:17:51.854Z,99022.20
2018-10-07T02:20:20.557Z,99025.72
2018-10-07T02:22:49.234Z,99027.37
2018-10-07T02:25:17.885Z,99028.91
2018-10-07T02:27:46.640Z,99024.75
2018-10-07T02:30:15.314Z,99029.66
2018-10-07T02:32:44.069Z,99031.09
2018-10-07T02:35:12.878Z,99030.20
2018-10-07T02:37:41.548Z,99035.22
2018-10-07T02:40:10.219Z,99031.05
2018-10-07T02:42:38.861Z,99038.09
2018-10-07T02:45:13.873Z,99039.52
2018-10-07T02:47:42.520Z,99035.59
2018-10-07T02:50:19.676Z,99033.07
2018-10-07T02:52:50.166Z,99032.67
2018-10-07T02:55:23.363Z,99037.41
2018-10-07T02:57:53.637Z,99035.08
2018-10-07T03:00:22.323Z,99035.91
2018-10-07T03:02:51.521Z,99031.24
2018-10-07T03:05:20.226Z,99032.45
2018-10-07T03:07:49.329Z,99026.28
2018-10-07T03:10:18.087Z,99032.44
2018-10-07T03:12:46.875Z,99033.56
2018-10-07T03:15:15.575Z,99030.53
2018-10-07T03:17:44.218Z,99025.64
2018-10-07T03:20:12.921Z,99025.08
2018-10-07T03:22:41.654Z,99023.79
2018-10-07T03:25:10.373Z,99025.05
2018-10-07T03:27:39.085Z,99027.91
2018-10-07T03:30:14.330Z,99024.70
2018-10-07T03:32:42.937Z,99023.02
2018-10-07T03:35:11.652Z,99026.34
2018-10-07T03:37:40.302Z,99024.84
2018-10-07T03:40:09.092Z,99019.38
2018-10-07T03:42:37.735Z,99029.07
2018-10-07T03:45:06.445Z,99021.96
2018-10-07T03:47:35.117Z,99024.77
2018-10-07T03:50:03.810Z,99028.28
2018-10-07T03:52:32.426Z,99034.05
2018-10-07T03:55:01.066Z,99034.63
2018-10-07T03:57:29.700Z,99032.31
2018-10-07T03:59:58.400Z,99030.75
2018-10-07T04:02:27.109Z,99026.13
2018-10-07T04:04:55.785Z,99038.95
2018-10-07T04:07:24.594Z,99041.74
2018-10-07T04:09:53.323Z,99032.21
2018-10-07T04:12:21.983Z,99035.86
2018-10-07T04:14:50.722Z,99033.87
2018-10-07T04:17:19.393Z,99033.80
2018-10-07T04:19:48.081Z,99034.33
2018-10-07T04:22:16.818Z,99033.56
2018-10-07T04:24:45.557Z,99035.30
2018-10-07T04:27:14.270Z,99041.34
2018-10-07T04:29:42.925Z,99042.95
2018-10-07T04:32:11.632Z,99040.37
2018-10-07T04:34:40.292Z,99050.44
2018-10-07T04:37:08.983Z,99052.54
2018-10-07T04:39:38.801Z,99059.05
2018-10-07T04:42:07.576Z,99054.91
2018-10-07T04:44:36.361Z,99061.72
2018-10-07T04:47:05.165Z,99065.45
2018-10-07T04:49:33.947Z,99063.45
2018-10-07T04:52:02.605Z,99069.04
2018-10-07T04:54:31.249Z,99073.86
2018-10-07T04:56:59.949Z,99075.20
2018-10-07T04:59:31.441Z,99080.86
2018-10-07T05:02:00.217Z,99095.47
2018-10-07T05:04:28.907Z,99090.08
2018-10-07T05:06:57.805Z,99097.37
2018-10-07T05:09:26.476Z,99107.78
2018-10-07T05:11:57.314Z,99107.45
2018-10-07T05:14:26.094Z,99110.53
2018-10-07T05:16:54.881Z,99110.97
2018-10-07T05:19:23.554Z,99115.84
2018-10-07T05:21:52.309Z,99125.50
2018-10-07T05:24:21.100Z,99134.27
2018-10-07T05:26:49.924Z,99127.83
2018-10-07T05:29:18.689Z,99129.48
2018-10-07T05:31:47.415Z,99121.39
2018-10-07T05:34:16.115Z,99124.84
2018-10-07T05:36:44.813Z,99136.61
2018-10-07T05:39:13.700Z,99132.74
2018-10-07T05:41:42.403Z,99143.53
2018-10-07T05:44:11.172Z,99141.91
2018-10-07T05:46:39.782Z,99138.49
2018-10-07T05:49:08.503Z,99150.33
2018-10-07T05:51:37.154Z,99153.36
2018-10-07T05:54:05.881Z,99156.36
2018-10-07T05:56:34.525Z,99156.56
2018-10-07T05:59:03.249Z,99149.64
2018-10-07T06:01:46.419Z,99154.19
2018-10-07T06:04:31.794Z,99151.97
2018-10-07T06:07:01.710Z,99155.92
2018-10-07T06:09:33.517Z,99164.79
2018-10-07T06:12:02.238Z,99173.05
2018-10-07T06:14:41.899Z,99184.12
2018-10-07T06:17:10.559Z,99183.95
2018-10-07T06:19:39.821Z,99186.34
2018-10-07T06:22:08.580Z,99190.36
2018-10-07T06:24:37.377Z,99195.72
2018-10-07T06:27:06.619Z,99196.31
2018-10-07T06:29:35.360Z,99196.75
2018-10-07T06:32:04.061Z,99186.73
2018-10-07T06:34:32.981Z,99190.63
2018-10-07T06:37:01.728Z,99200.69
2018-10-07T06:39:30.404Z,99207.07
2018-10-07T06:41:59.164Z,99207.81
2018-10-07T06:44:27.902Z,99209.42
2018-10-07T06:46:56.747Z,99205.73
2018-10-07T06:49:25.413Z,99206.98
2018-10-07T06:51:54.110Z,99208.23
2018-10-07T06:54:22.809Z,99214.02
2018-10-07T06:56:51.665Z,99218.47
2018-10-07T06:59:20.335Z,99219.09
2018-10-07T07:01:49.024Z,99219.44
2018-10-07T07:04:17.702Z,99225.13
2018-10-07T07:06:46.389Z,99228.14
2018-10-07T07:09:15.125Z,99223.53
2018-10-07T07:11:43.808Z,99230.48
2018-10-07T07:14:12.757Z,99222.49
2018-10-07T07:16:41.455Z,99228.25
2018-10-07T07:19:10.103Z,99226.67
2018-10-07T07:21:38.792Z,99230.33
2018-10-07T07:24:07.498Z,99231.09
2018-10-07T07:26:36.238Z,99233.64
2018-10-07T07:29:05.031Z,99241.25
2018-10-07T07:31:33.738Z,99239.36
2018-10-07T07:34:02.495Z,99239.83
2018-10-07T07:36:31.761Z,99245.72
2018-10-07T07:39:00.524Z,99249.46
2018-10-07T07:41:29.309Z,99254.58
2018-10-07T07:43:58.032Z,99253.89
2018-10-07T07:46:26.783Z,99258.86
2018-10-07T07:48:55.473Z,99259.55
2018-10-07T07:51:24.128Z,99256.52
2018-10-07T07:53:52.773Z,99262.14
2018-10-07T07:56:21.424Z,99263.98
2018-10-07T07:58:50.183Z,99265.48
2018-10-07T08:01:18.926Z,99271.05
2018-10-07T08:03:47.558Z,99265.89
2018-10-07T08:06:16.232Z,99269.71
2018-10-07T08:08:44.960Z,99268.27
2018-10-07T08:11:13.618Z,99279.77
2018-10-07T08:13:42.317Z,99284.41
2018-10-07T08:16:11.045Z,99286.19
2018-10-07T08:18:39.733Z,99284.75
2018-10-07T08:21:08.450Z,99280.56
2018-10-07T08:23:37.175Z,99281.62
2018-10-07T08:26:05.938Z,99277.97
2018-10-07T08:28:34.633Z,99282.91
2018-10-07T08:31:03.337Z,99284.95
2018-10-07T08:33:32.024Z,99289.88
2018-10-07T08:36:00.745Z,99296.94
2018-10-07T08:38:29.457Z,99292.30
2018-10-07T08:40:58.122Z,99294.44
2018-10-07T08:43:26.790Z,99291.45
2018-10-07T08:45:55.486Z,99291.70
2018-10-07T08:48:24.158Z,99289.27
2018-10-07T08:50:52.870Z,99290.13
2018-10-07T08:53:21.553Z,99295.94
2018-10-07T08:55:50.277Z,99292.16
2018-10-07T08:58:19.008Z,99288.88
2018-10-07T09:00:47.777Z,99292.77
2018-10-07T09:03:16.476Z,99293.76
2018-10-07T09:05:45.213Z,99299.07
2018-10-07T09:08:13.945Z,99297.73
2018-10-07T09:10:42.673Z,99306.68
2018-10-07T09:13:11.400Z,99303.60
2018-10-07T09:15:40.048Z,99301.09
2018-10-07T09:18:08.830Z,99298.01
2018-10-07T09:20:37.501Z,99295.06
2018-10-07T09:23:06.354Z,99288.17
2018-10-07T09:25:35.086Z,99295.51
2018-10-07T09:28:03.885Z,99299.34
2018-10-07T09:30:32.797Z,99303.01
2018-10-07T09:33:01.482Z,99299.95
2018-10-07T09:35:32.721Z,99303.16
2018-10-07T09:38:01.386Z,99299.26
2018-10-07T09:40:30.647Z,99298.23
2018-10-07T09:42:59.381Z,99299.86
2018-10-07T09:45:28.143Z,99294.21
2018-10-07T09:47:56.980Z,99299.48
2018-10-07T09:50:25.689Z,99306.94
2018-10-07T09:52:54.350Z,99308.10
2018-10-07T09:55:23.063Z,99307.47
2018-10-07T09:57:51.817Z,99313.38
2018-10-07T10:00:25.425Z,99308.97
2018-10-07T10:02:54.136Z,99302.20
2018-10-07T10:05:22.847Z,99303.43
2018-10-07T10:07:51.545Z,99309.02
2018-10-07T10:10:20.249Z,99301.42
2018-10-07T10:12:48.952Z,99299.96
2018-10-07T10:15:17.685Z,99304.66
2018-10-07T10:17:48.249Z,99298.94
2018-10-07T10:20:21.281Z,99303.59
2018-10-07T10:23:04.473Z,99302.31
2018-10-07T10:25:44.979Z,99303.16
2018-10-07T10:28:25.284Z,99307.28
2018-10-07T10:31:14.359Z,99303.33
2018-10-07T10:33:49.872Z,99301.63
2018-10-07T10:36:28.117Z,99306.84
2018-10-07T10:39:19.217Z,99309.48
2018-10-07T10:42:53.885Z,99301.38
2018-10-07T10:45:26.848Z,99299.16
2018-10-07T10:47:58.789Z,99294.52
2018-10-07T10:50:39.713Z,99297.00
2018-10-07T10:53:21.663Z,99303.55
2018-10-07T10:56:11.239Z,99298.55
2018-10-07T11:00:54.584Z,99297.00
2018-10-07T11:04:26.927Z,99291.30
2018-10-07T11:07:13.354Z,99288.31
2018-10-07T11:09:51.293Z,99286.39
2018-10-07T11:12:30.385Z,99295.09
2018-10-07T11:15:09.018Z,99295.69
2018-10-07T11:17:48.980Z,99296.77
2018-10-07T11:20:26.509Z,99295.45
2018-10-07T11:23:06.194Z,99292.25
2018-10-07T11:25:46.402Z,99292.72
2018-10-07T11:28:23.157Z,99290.69
2018-10-07T11:31:06.780Z,99286.88
2018-10-07T11:35:51.844Z,99284.50
2018-10-07T11:38:29.226Z,99284.39
2018-10-07T11:41:33.577Z,99291.06
2018-10-07T11:44:10.845Z,99287.10
2018-10-07T11:49:04.416Z,99282.61
2018-10-07T11:52:56.287Z,99281.99
2018-10-07T11:55:24.966Z,99289.39
2018-10-07T11:57:53.657Z,99287.59
2018-10-07T12:00:22.517Z,99293.67
2018-10-07T12:02:51.302Z,99287.37
2018-10-07T12:05:19.944Z,99287.36
2018-10-07T12:07:48.759Z,99286.66
2018-10-07T12:10:17.552Z,99297.59
2018-10-07T12:12:46.222Z,99297.94
2018-10-07T12:15:14.958Z,99294.75
2018-10-07T12:17:43.664Z,99293.67
2018-10-07T12:20:12.619Z,99292.50
2018-10-07T12:22:43.260Z,99294.20
2018-10-07T12:25:11.981Z,99289.75
2018-10-07T12:27:40.681Z,99295.88
2018-10-07T12:30:09.450Z,99299.89
2018-10-07T12:32:38.096Z,99298.83
2018-10-07T12:35:06.825Z,99296.81
2018-10-07T12:37:35.541Z,99292.64
2018-10-07T12:40:04.343Z,99290.70
2018-10-07T12:42:39.644Z,99293.61
2018-10-07T12:45:08.348Z,99291.59
2018-10-07T12:47:37.034Z,99294.87
2018-10-07T12:50:05.817Z,99290.69
2018-10-07T12:52:35.471Z,99292.00
2018-10-07T12:55:04.202Z,99295.33
2018-10-07T12:57:32.946Z,99292.70
2018-10-07T13:00:01.703Z,99295.22
2018-10-07T13:02:30.452Z,99304.94
2018-10-07T13:04:59.170Z,99305.16
2018-10-07T13:07:27.983Z,99312.56
2018-10-07T13:09:56.710Z,99311.91
2018-10-07T13:12:25.405Z,99312.92
2018-10-07T13:14:54.092Z,99310.86
2018-10-07T13:17:25.713Z,99318.71
2018-10-07T13:19:54.361Z,99318.10
2018-10-07T13:22:23.042Z,99317.52
2018-10-07T13:24:51.697Z,99321.41
2018-10-07T13:27:20.423Z,99319.38
2018-10-07T13:29:49.109Z,99316.16
2018-10-07T13:32:17.829Z,99315.84
2018-10-07T13:34:46.502Z,99316.36
2018-10-07T13:37:15.160Z,99322.70
2018-10-07T13:39:43.891Z,99316.80
2018-10-07T13:42:12.603Z,99324.21
2018-10-07T13:44:41.328Z,99315.04
2018-10-07T13:47:10.046Z,99314.97
2018-10-07T13:49:38.709Z,99317.97
2018-10-07T13:52:07.473Z,99323.40
2018-10-07T13:54:36.170Z,99322.45
2018-10-07T13:57:04.830Z,99328.67
2018-10-07T13:59:33.575Z,99321.31
2018-10-07T14:02:02.264Z,99333.59
2018-10-07T14:04:31.013Z,99325.25
2018-10-07T14:06:59.730Z,99336.39
2018-10-07T14:09:28.432Z,99336.23
2018-10-07T14:11:57.216Z,99331.88
2018-10-07T14:14:25.878Z,99335.88
2018-10-07T14:16:54.593Z,99333.55
2018-10-07T14:19:23.585Z,99336.56
2018-10-07T14:21:52.414Z,99337.27
2018-10-07T14:24:21.133Z,99340.14
2018-10-07T14:26:49.820Z,99348.41
2018-10-07T14:29:18.608Z,99340.90
2018-10-07T14:34:25.773Z,99347.16
2018-10-07T14:36:54.470Z,99343.63
2018-10-07T14:39:23.222Z,99351.94
2018-10-07T14:41:51.831Z,99348.62
2018-10-07T14:44:20.745Z,99358.75
2018-10-07T14:46:49.452Z,99359.41
2018-10-07T14:49:18.228Z,99368.58
2018-10-07T14:51:46.869Z,99362.28
2018-10-07T14:54:15.596Z,99369.63
2018-10-07T14:56:44.262Z,99366.16
2018-10-07T14:59:13.409Z,99366.06
2018-10-07T15:01:43.592Z,99372.86
2018-10-07T15:04:12.373Z,99384.27
2018-10-07T15:06:41.157Z,99378.43
2018-10-07T15:09:11.250Z,99373.77
2018-10-07T15:11:40.059Z,99387.69
2018-10-07T15:14:09.337Z,99385.54
2018-10-07T15:16:38.185Z,99394.11
2018-10-07T15:19:07.063Z,99391.27
2018-10-07T15:21:35.757Z,99389.65
2018-10-07T15:24:04.476Z,99385.26
2018-10-07T15:26:33.170Z,99387.75
2018-10-07T15:29:01.848Z,99394.59
2018-10-07T15:31:30.549Z,99393.92
2018-10-07T15:33:59.217Z,99398.81
2018-10-07T15:36:27.951Z,99396.46
2018-10-07T15:38:56.641Z,99400.45
2018-10-07T15:41:25.354Z,99405.53
2018-10-07T15:43:54.076Z,99408.73
2018-10-07T15:46:22.777Z,99405.82
2018-10-07T15:48:51.479Z,99406.70
2018-10-07T15:51:25.242Z,99409.73
2018-10-07T15:53:53.953Z,99413.95
2018-10-07T15:56:22.669Z,99420.91
2018-10-07T15:58:51.364Z,99415.88
2018-10-07T16:01:20.080Z,99413.31
2018-10-07T16:03:48.961Z,99420.09
2018-10-07T16:06:17.642Z,99424.11
2018-10-07T16:08:46.371Z,99422.06
2018-10-07T16:11:15.088Z,99422.58
2018-10-07T16:13:43.860Z,99431.38
2018-10-07T16:16:13.209Z,99432.09
2018-10-07T16:18:41.945Z,99437.67
2018-10-07T16:21:10.698Z,99441.78
2018-10-07T16:23:39.440Z,99444.23
2018-10-07T16:26:08.284Z,99452.45
2018-10-07T16:28:36.961Z,99461.48
2018-10-07T16:31:05.656Z,99452.71
2018-10-07T16:33:34.402Z,99460.19
2018-10-07T16:36:03.054Z,99465.98
2018-10-07T16:38:32.076Z,99468.97
2018-10-07T16:41:00.786Z,99472.56
2018-10-07T16:43:29.502Z,99480.94
2018-10-07T16:45:58.188Z,99485.82
2018-10-07T16:48:26.947Z,99493.60
2018-10-07T16:50:55.644Z,99493.81
2018-10-07T16:53:24.332Z,99495.20
2018-10-07T16:55:53.040Z,99493.30
2018-10-07T16:58:21.751Z,99493.60
2018-10-07T17:00:55.915Z,99489.31
2018-10-07T17:03:24.608Z,99494.41
2018-10-07T17:05:53.265Z,99491.22
2018-10-07T17:08:21.942Z,99497.51
2018-10-07T17:10:50.650Z,99509.84
2018-10-07T17:13:19.370Z,99512.25
2018-10-07T17:15:48.166Z,99510.20
2018-10-07T17:18:16.850Z,99513.69
2018-10-07T17:20:45.628Z,99522.22
2018-10-07T17:23:14.404Z,99519.98
2018-10-07T17:25:43.114Z,99521.59
2018-10-07T17:28:12.100Z,99521.51
2018-10-07T17:30:40.816Z,99515.72
2018-10-07T17:33:09.589Z,99527.97
2018-10-07T17:35:38.358Z,99539.25
2018-10-07T17:38:07.514Z,99541.31
2018-10-07T17:40:36.316Z,99537.17
2018-10-07T17:43:04.999Z,99543.75
2018-10-07T17:45:33.738Z,99541.31
2018-10-07T17:48:02.487Z,99548.95
2018-10-07T17:50:31.225Z,99541.97
2018-10-07T17:52:59.965Z,99553.01
2018-10-07T17:55:28.830Z,99538.68
2018-10-07T17:57:57.536Z,99547.34
2018-10-07T18:00:26.335Z,99551.37
2018-10-07T18:02:55.169Z,99548.17
2018-10-07T18:05:23.721Z,99550.00
2018-10-07T18:07:52.614Z,99556.52
2018-10-07T18:10:21.372Z,99551.60
2018-10-07T18:12:50.070Z,99557.11
2018-10-07T18:15:18.758Z,99559.42
2018-10-07T18:17:47.417Z,99570.38
2018-10-07T18:20:16.127Z,99575.19
2018-10-07T18:22:44.841Z,99576.80
2018-10-07T18:25:13.535Z,99575.50
2018-10-07T18:27:42.221Z,99585.46
2018-10-07T18:30:10.944Z,99585.09
2018-10-07T18:32:39.759Z,99585.77
2018-10-07T18:35:08.483Z,99585.81
2018-10-07T18:37:37.543Z,99588.94
2018-10-07T18:40:06.433Z,99587.16
2018-10-07T18:42:35.134Z,99599.08
2018-10-07T18:45:03.834Z,99602.70
2018-10-07T18:47:32.739Z,99597.83
2018-10-07T18:50:01.485Z,99605.33
2018-10-07T18:52:31.082Z,99610.06
2018-10-07T18:54:59.852Z,99610.02
2018-10-07T18:57:28.689Z,99612.30
2018-10-07T18:59:57.470Z,99617.48
2018-10-07T19:02:26.267Z,99613.86
2018-10-07T19:04:55.111Z,99623.14
2018-10-07T19:07:23.813Z,99623.91
2018-10-07T19:09:52.698Z,99626.17
2018-10-07T19:12:24.129Z,99634.52
2018-10-07T19:14:52.885Z,99636.00
2018-10-07T19:17:21.645Z,99635.42
2018-10-07T19:19:50.436Z,99636.53
2018-10-07T19:22:25.796Z,99640.91
2018-10-07T19:24:54.517Z,99649.27
2018-10-07T19:27:23.235Z,99643.64
2018-10-07T19:29:51.975Z,99638.22
2018-10-07T19:32:20.616Z,99645.91
2018-10-07T19:34:49.328Z,99653.33
2018-10-07T19:37:18.166Z,99655.29
2018-10-07T19:39:46.784Z,99656.84
2018-10-07T19:42:15.513Z,99661.76
2018-10-07T19:44:44.296Z,99663.00
2018-10-07T19:47:13.002Z,99666.67
2018-10-07T19:49:43.210Z,99665.33
2018-10-07T19:54:40.940Z,99673.68
2018-10-07T19:57:09.678Z,99675.87
2018-10-07T19:59:38.414Z,99675.38
2018-10-07T20:02:07.221Z,99681.55
2018-10-07T20:04:36.011Z,99681.00
2018-10-07T20:07:04.962Z,99680.60
2018-10-07T20:09:34.001Z,99685.33
2018-10-07T20:12:02.797Z,99688.77
2018-10-07T20:14:31.513Z,99694.13
2018-10-07T20:17:00.718Z,99696.98
2018-10-07T20:19:29.846Z,99699.49
2018-10-07T20:21:58.879Z,99706.09
2018-10-07T20:24:27.679Z,99702.40
2018-10-07T20:26:56.651Z,99706.17
2018-10-07T20:29:25.701Z,99705.16
2018-10-07T20:31:54.734Z,99706.05
2018-10-07T20:34:23.812Z,99708.12
2018-10-07T20:36:52.894Z,99711.42
2018-10-07T20:39:21.637Z,99717.00
2018-10-07T20:41:50.359Z,99725.58
2018-10-07T20:44:19.183Z,99725.34
2018-10-07T20:46:47.913Z,99730.52
2018-10-07T20:49:16.729Z,99725.91
2018-10-07T20:51:45.441Z,99733.16
2018-10-07T20:54:14.184Z,99727.16
2018-10-07T20:56:42.878Z,99727.66
2018-10-07T20:59:11.601Z,99722.68
2018-10-07T21:01:40.338Z,99731.75
2018-10-07T21:04:09.144Z,99738.98
2018-10-07T21:06:38.024Z,99731.17
2018-10-07T21:09:09.576Z,99731.36
2018-10-07T21:11:38.606Z,99732.23
2018-10-07T21:14:07.538Z,99725.37
2018-10-07T21:16:36.246Z,99735.64
2018-10-07T21:19:05.027Z,99733.17
2018-10-07T21:21:33.724Z,99737.45
2018-10-07T21:24:03.010Z,99734.98
2018-10-07T21:26:31.766Z,99735.31
2018-10-07T21:29:01.490Z,99739.97
2018-10-07T21:31:30.216Z,99736.41
2018-10-07T21:33:58.935Z,99747.86
2018-10-07T21:36:27.629Z,99741.22
2018-10-07T21:38:56.451Z,99744.54
2018-10-07T21:41:25.330Z,99743.97
2018-10-07T21:43:54.017Z,99739.77
2018-10-07T21:46:22.885Z,99746.59
2018-10-07T21:48:51.661Z,99740.80
2018-10-07T21:51:20.474Z,99746.17
2018-10-07T21:53:49.137Z,99745.00
2018-10-07T21:56:17.834Z,99739.63
2018-10-07T21:58:46.498Z,99746.64
2018-10-07T22:01:15.244Z,99740.10
2018-10-07T22:03:43.913Z,99745.77
2018-10-07T22:06:12.672Z,99742.21
2018-10-07T22:08:41.381Z,99740.45
2018-10-07T22:11:10.137Z,99739.52
2018-10-07T22:13:38.805Z,99737.84
2018-10-07T22:16:07.551Z,99741.64
2018-10-07T22:18:36.225Z,99744.63
2018-10-07T22:21:04.940Z,99738.55
2018-10-07T22:23:33.762Z,99741.02
2018-10-07T22:26:02.470Z,99750.12
2018-10-07T22:28:31.125Z,99751.81
2018-10-07T22:31:00.190Z,99742.92
2018-10-07T22:33:29.046Z,99747.53
2018-10-07T22:35:57.924Z,99749.43
2018-10-07T22:38:26.601Z,99749.80
2018-10-07T22:40:57.856Z,99754.20
2018-10-07T22:43:28.648Z,99754.80
2018-10-07T22:45:58.739Z,99759.05
2018-10-07T22:48:27.424Z,99759.85
2018-10-07T22:50:56.140Z,99760.28
2018-10-07T22:53:29.252Z,99764.52
2018-10-07T22:55:57.964Z,99769.17
2018-10-07T22:58:26.642Z,99765.37
2018-10-07T23:00:55.305Z,99765.73
2018-10-07T23:03:23.983Z,99768.45
2018-10-07T23:05:52.659Z,99771.56
2018-10-07T23:08:21.342Z,99774.89
2018-10-07T23:10:50.028Z,99776.84
2018-10-07T23:13:18.694Z,99781.16
2018-10-07T23:15:47.509Z,99777.77
2018-10-07T23:18:16.226Z,99779.98
2018-10-07T23:20:44.931Z,99783.05
2018-10-07T23:23:13.778Z,99784.89
2018-10-07T23:25:42.494Z,99784.56
2018-10-07T23:28:11.126Z,99779.87
2018-10-07T23:30:39.813Z,99783.76
2018-10-07T23:33:08.514Z,99790.59
2018-10-07T23:35:37.197Z,99786.93
2018-10-07T23:38:06.185Z,99790.95
2018-10-07T23:40:34.962Z,99799.74
2018-10-07T23:43:03.632Z,99791.73
2018-10-07T23:45:32.320Z,99790.81
2018-10-07T23:48:01.121Z,99794.91
2018-10-07T23:50:29.816Z,99803.00
2018-10-07T23:52:58.484Z,99801.74
2018-10-07T23:55:27.167Z,99813.05
2018-10-07T23:57:55.837Z,99809.97
